Overview Statistics Trail Chart Weather Telemetry Raw packets
 

This is the latest recevied weather packets stored in our database for station/object PP5ERE-13. If no packets are shown the sender has not sent any weather packets the latest 10 day(s).

<< 408 409 410 411 412 413 414 >>
Time Temp. Humidity Pressure Rain* Wind** Luminosity Snow
1787683256 20.56° C 89% 1017.2 hPa - - - -
1787683197 20.56° C 90% 1017.3 hPa - - - -
1787683136 20.56° C 90% 1017.3 hPa - - - -
1787683080 21.11° C 65% 710.4 hPa - - - -
1787588788 20° C 64% 1023 hPa - - - -
1787588728 20.56° C 67% 1023 hPa - - - -
1787588668 20.56° C 64% 1023.1 hPa - - - -
1787588608 20.56° C 63% 1023.1 hPa - - - -
1787588548 20.56° C 64% 1023.1 hPa - - - -
1787588488 20.56° C 66% 1023.1 hPa - - - -
1787588428 20.56° C 66% 1023.1 hPa - - - -
1787588368 20.56° C 65% 1023.1 hPa - - - -
1787588308 20° C 66% 1023.1 hPa - - - -
1787588248 20° C 67% 1023.2 hPa - - - -
1787588188 20° C 65% 1023.1 hPa - - - -
1787588128 20° C 64% 1023.2 hPa - - - -
1787588068 20° C 65% 1023.2 hPa - - - -
1787588008 20° C 66% 1023.3 hPa - - - -
1787587948 20° C 67% 1023.3 hPa - - - -
1787587888 20° C 66% 1023.2 hPa - - - -
1787587828 20° C 64% 1023.2 hPa - - - -
1787587768 20° C 65% 1023.2 hPa - - - -
1787587708 20° C 65% 1023.3 hPa - - - -
1787587648 20° C 67% 1023.3 hPa - - - -
1787587588 20° C 64% 1023.3 hPa - - - -

* Rain since midnight (hover to see other rain measurements)
** Current wind speed in m/s (hover to see current wind gust speed)